Time;durP1;ratioP1;P1;durP2;ratioP2;P2;SDS_P1;SDS_P2;PMS_P1;PMS_P2;Temp;Humidity;BMP_temperature;BMP_pressure;BME280_temperature;BME280_humidity;BME280_pressure;Samples;Min_cycle;Max_cycle;Signal;HPM_P1;HPM_P2
2023/08/18 00:02:21;;;;;;;1.13;1.13;;;17.40;99.90;;;;;;5013847;28;20434;-71
2023/08/18 00:04:47;;;;;;;1.57;1.47;;;17.40;99.90;;;;;;5013736;28;20411;-70
2023/08/18 00:07:12;;;;;;;0.67;0.67;;;17.10;99.90;;;;;;5014058;28;20494;-71
2023/08/18 00:09:38;;;;;;;1.00;1.00;;;17.20;99.90;;;;;;5013863;28;20650;-72
2023/08/18 00:12:05;;;;;;;1.33;1.23;;;17.40;99.90;;;;;;5013535;28;20198;-71
2023/08/18 00:14:31;;;;;;;0.77;0.77;;;;;;;;;;5013807;28;20170;-70
2023/08/18 00:16:57;;;;;;;0.90;0.90;;;17.60;99.90;;;;;;5013601;28;20395;-70
2023/08/18 00:19:22;;;;;;;0.57;0.53;;;17.30;99.90;;;;;;4995872;28;20442;-71
2023/08/18 00:21:48;;;;;;;4.70;1.20;;;;;;;;;;5013625;28;20651;-71
2023/08/18 00:24:14;;;;;;;2.10;0.70;;;17.60;99.90;;;;;;5013505;28;20182;-71
2023/08/18 00:26:39;;;;;;;0.70;0.70;;;17.50;99.90;;;;;;4996098;28;20419;-71
2023/08/18 00:29:05;;;;;;;0.53;0.53;;;17.10;99.90;;;;;;5013770;28;20176;-71
2023/08/18 00:31:31;;;;;;;0.70;0.60;;;17.30;99.90;;;;;;5013458;28;20282;-71
2023/08/18 00:33:57;;;;;;;0.97;0.80;;;;;;;;;;5013351;28;20204;-71
2023/08/18 00:36:23;;;;;;;1.80;1.50;;;;;;;;;;5013528;28;20255;-71
2023/08/18 00:38:49;;;;;;;0.87;0.77;;;;;;;;;;5016945;28;20395;-70
2023/08/18 00:41:14;;;;;;;4.63;0.93;;;17.20;99.90;;;;;;5017379;28;20785;-71
2023/08/18 00:43:40;;;;;;;1.00;1.00;;;17.20;99.90;;;;;;5017806;28;20410;-72
2023/08/18 00:46:06;;;;;;;0.63;0.63;;;17.20;99.90;;;;;;4999660;28;20175;-71
2023/08/18 00:48:32;;;;;;;1.13;0.90;;;17.30;99.90;;;;;;5017306;28;20182;-71
2023/08/18 00:51:00;;;;;;;1.03;1.03;;;17.30;99.90;;;;;;5017318;28;20481;-71
2023/08/18 00:53:27;;;;;;;0.60;0.60;;;17.30;99.90;;;;;;5017193;28;20451;-70
2023/08/18 00:55:52;;;;;;;0.80;0.80;;;17.30;99.90;;;;;;5016901;28;20406;-71
2023/08/18 00:58:18;;;;;;;3.63;1.00;;;17.30;99.90;;;;;;5017172;28;20464;-70
2023/08/18 01:00:44;;;;;;;0.70;0.70;;;17.40;99.90;;;;;;5017414;28;20189;-71
2023/08/18 01:03:10;;;;;;;4.63;1.23;;;;;;;;;;5016987;28;20229;-70
2023/08/18 01:05:36;;;;;;;1.63;1.53;;;17.30;99.90;;;;;;5016987;28;20489;-71
2023/08/18 01:08:02;;;;;;;1.60;1.50;;;17.20;99.90;;;;;;5017102;28;20445;-72
2023/08/18 01:10:37;;;;;;;1.03;0.90;;;17.00;99.90;;;;;;5016875;28;20630;-70
2023/08/18 01:13:14;;;;;;;2.00;1.90;;;17.20;99.90;;;;;;5017029;28;20253;-71
2023/08/18 01:15:43;;;;;;;1.37;1.37;;;16.40;99.90;;;;;;5016818;28;20421;-71
2023/08/18 01:18:10;;;;;;;2.40;1.63;;;17.10;99.90;;;;;;5016918;28;20503;-70
2023/08/18 01:20:37;;;;;;;1.07;1.07;;;17.20;99.90;;;;;;5016643;28;20863;-71
2023/08/18 01:23:04;;;;;;;1.10;1.10;;;17.30;99.90;;;;;;5016641;28;20406;-71
2023/08/18 01:25:31;;;;;;;0.90;0.90;;;17.30;99.90;;;;;;5016643;28;20414;-71
2023/08/18 01:27:58;;;;;;;0.80;0.80;;;17.30;99.90;;;;;;5016583;28;20418;-70
2023/08/18 01:30:39;;;;;;;2.13;2.00;;;16.80;99.90;;;;;;5016486;28;20846;-71
2023/08/18 01:33:20;;;;;;;1.80;1.70;;;17.10;99.90;;;;;;5016583;28;20533;-70
2023/08/18 01:35:47;;;;;;;0.97;0.97;;;17.00;99.90;;;;;;5016356;28;20484;-70
2023/08/18 01:38:14;;;;;;;0.70;0.70;;;17.10;99.90;;;;;;5016673;28;20407;-72
2023/08/18 01:40:41;;;;;;;0.40;0.40;;;17.00;99.90;;;;;;5016397;28;20484;-70
2023/08/18 01:43:07;;;;;;;0.93;0.93;;;;;;;;;;5016439;28;20414;-70
2023/08/18 01:45:35;;;;;;;1.60;1.50;;;16.80;99.90;;;;;;5016098;28;20744;-70
2023/08/18 01:48:02;;;;;;;1.27;1.17;;;;;;;;;;5016179;28;20769;-70
2023/08/18 01:50:27;;;;;;;5.73;1.80;;;16.80;99.90;;;;;;5016177;28;20505;-71
2023/08/18 01:52:53;;;;;;;1.50;1.00;;;16.80;99.90;;;;;;5016119;28;20989;-70
2023/08/18 01:55:19;;;;;;;0.70;0.70;;;16.80;99.90;;;;;;5015893;28;20176;-71
2023/08/18 01:57:44;;;;;;;2.60;1.20;;;16.80;99.90;;;;;;5016364;28;20175;-71
2023/08/18 02:00:10;;;;;;;0.67;0.60;;;16.40;99.90;;;;;;5016036;28;20196;-70
2023/08/18 02:02:36;;;;;;;13.43;2.40;;;16.70;99.90;;;;;;5015943;28;20168;-71
2023/08/18 02:05:01;;;;;;;0.70;0.67;;;16.60;99.90;;;;;;5015765;28;20758;-70
2023/08/18 02:07:27;;;;;;;0.67;0.67;;;16.50;99.90;;;;;;5016021;28;20176;-71
2023/08/18 02:09:53;;;;;;;1.47;1.43;;;16.70;99.90;;;;;;5015770;28;20245;-71
2023/08/18 02:12:19;;;;;;;2.80;1.47;;;;;;;;;;5015734;28;20372;-71
2023/08/18 02:14:45;;;;;;;1.37;1.20;;;;;;;;;;5015671;28;20171;-71
2023/08/18 02:17:10;;;;;;;0.83;0.80;;;16.70;99.90;;;;;;5015679;28;20407;-71
2023/08/18 02:19:36;;;;;;;4.30;1.80;;;16.50;99.90;;;;;;5015549;28;20437;-71
2023/08/18 02:22:02;;;;;;;1.43;1.03;;;16.70;99.90;;;;;;4998080;28;20179;-71
2023/08/18 02:24:28;;;;;;;5.93;3.37;;;16.40;99.90;;;;;;5015451;28;20199;-70
2023/08/18 02:26:53;;;;;;;0.50;0.50;;;16.70;99.90;;;;;;5015650;28;20178;-71
2023/08/18 02:29:19;;;;;;;0.90;0.90;;;16.80;99.90;;;;;;5015663;28;20403;-71
2023/08/18 02:31:46;;;;;;;1.27;1.03;;;16.60;99.90;;;;;;5015324;28;20559;-70
2023/08/18 02:34:12;;;;;;;0.83;0.83;;;16.70;99.90;;;;;;5015298;28;20211;-71
2023/08/18 02:36:38;;;;;;;0.60;0.60;;;16.70;99.90;;;;;;5015561;28;20429;-70
2023/08/18 02:39:04;;;;;;;0.80;0.80;;;16.70;99.90;;;;;;5015679;28;20172;-70
2023/08/18 02:41:30;;;;;;;0.83;0.83;;;;;;;;;;5015247;28;20249;-70
2023/08/18 02:43:55;;;;;;;1.20;1.00;;;16.70;99.90;;;;;;5015191;28;20176;-70
2023/08/18 02:46:21;;;;;;;1.53;1.00;;;16.80;99.90;;;;;;5015256;28;20422;-70
2023/08/18 02:48:46;;;;;;;1.33;0.97;;;16.60;99.90;;;;;;5015415;28;20183;-72
2023/08/18 02:51:12;;;;;;;0.90;0.90;;;16.60;99.90;;;;;;5015191;28;20200;-71
2023/08/18 02:53:38;;;;;;;0.83;0.70;;;16.70;99.90;;;;;;5015131;28;20555;-71
2023/08/18 02:56:03;;;;;;;0.40;0.40;;;16.60;99.90;;;;;;5014977;28;20171;-71
2023/08/18 02:58:30;;;;;;;1.80;1.00;;;16.50;99.90;;;;;;5015119;28;20186;-71
2023/08/18 03:01:01;;;;;;;0.70;0.70;;;16.50;99.90;;;;;;5014186;28;20558;-71
2023/08/18 03:03:27;;;;;;;0.80;0.73;;;16.50;99.90;;;;;;5015324;28;20406;-71
2023/08/18 03:05:53;;;;;;;0.43;0.43;;;16.40;99.90;;;;;;5014701;28;20415;-71
2023/08/18 03:08:19;;;;;;;1.23;0.70;;;16.10;99.90;;;;;;5014828;28;20266;-71
2023/08/18 03:10:54;;;;;;;0.77;0.70;;;16.60;99.90;;;;;;5014677;28;20431;-70
2023/08/18 03:13:19;;;;;;;0.67;0.67;;;16.40;99.90;;;;;;5014816;28;20553;-71
2023/08/18 03:15:45;;;;;;;0.50;0.50;;;16.50;99.90;;;;;;5013930;28;20410;-71
2023/08/18 03:18:11;;;;;;;1.40;1.27;;;16.40;99.90;;;;;;5014666;28;20163;-71
2023/08/18 03:20:36;;;;;;;0.77;0.77;;;16.30;99.90;;;;;;5014368;28;20211;-70
2023/08/18 03:23:02;;;;;;;1.27;1.17;;;16.50;99.90;;;;;;5014633;28;20179;-71
2023/08/18 03:25:28;;;;;;;1.17;0.93;;;16.30;99.90;;;;;;4996610;28;20191;-70
2023/08/18 03:27:56;;;;;;;1.20;1.10;;;16.10;99.90;;;;;;4996798;28;20175;-70
2023/08/18 03:30:22;;;;;;;2.50;2.30;;;;;;;;;;5014407;28;20222;-71
2023/08/18 03:32:50;;;;;;;1.20;1.13;;;16.20;99.90;;;;;;5014458;28;20474;-71
2023/08/18 03:35:16;;;;;;;3.43;0.90;;;16.60;99.90;;;;;;5014124;28;20434;-71
2023/08/18 03:37:41;;;;;;;1.10;1.10;;;16.40;99.90;;;;;;5014369;28;20399;-70
2023/08/18 03:40:08;;;;;;;1.40;0.90;;;16.30;99.90;;;;;;5014243;28;20760;-71
2023/08/18 03:42:33;;;;;;;0.93;0.93;;;16.20;99.90;;;;;;5014345;28;20172;-71
2023/08/18 03:44:59;;;;;;;0.70;0.70;;;16.20;99.90;;;;;;5013900;28;20421;-70
2023/08/18 03:47:25;;;;;;;0.70;0.70;;;16.10;99.90;;;;;;5014336;28;20535;-71
2023/08/18 03:49:51;;;;;;;0.70;0.70;;;16.20;99.90;;;;;;5014095;28;20425;-70
2023/08/18 03:52:16;;;;;;;0.40;0.40;;;16.30;99.90;;;;;;5013817;28;20187;-70
2023/08/18 03:54:42;;;;;;;0.40;0.40;;;16.40;99.90;;;;;;5013993;28;20179;-70
2023/08/18 03:57:08;;;;;;;0.50;0.50;;;16.50;99.90;;;;;;5013971;28;20164;-70
2023/08/18 03:59:33;;;;;;;0.63;0.63;;;16.20;99.90;;;;;;4996352;28;20183;-71
2023/08/18 04:01:59;;;;;;;0.70;0.70;;;16.40;99.90;;;;;;5013981;28;20646;-70
2023/08/18 04:04:24;;;;;;;0.50;0.50;;;16.30;99.90;;;;;;5013797;28;20470;-70
2023/08/18 04:06:50;;;;;;;0.57;0.57;;;;;;;;;;5013943;28;20598;-70
2023/08/18 04:09:16;;;;;;;1.10;1.03;;;15.90;99.90;;;;;;5013764;28;20171;-71
2023/08/18 04:11:43;;;;;;;1.13;0.70;;;16.20;99.90;;;;;;5012894;28;20422;-71
2023/08/18 04:14:09;;;;;;;1.17;1.07;;;16.10;99.90;;;;;;5013575;28;20210;-71
2023/08/18 04:16:35;;;;;;;0.87;0.87;;;16.10;99.90;;;;;;5013792;28;20838;-71
2023/08/18 04:19:00;;;;;;;1.70;0.93;;;16.10;99.90;;;;;;5013567;28;20812;-70
2023/08/18 04:21:27;;;;;;;1.40;1.30;;;;;;;;;;5013776;28;20184;-70
2023/08/18 04:23:53;;;;;;;1.10;1.00;;;16.30;99.90;;;;;;5013559;28;20406;-70
2023/08/18 04:26:19;;;;;;;0.80;0.80;;;16.30;99.90;;;;;;5013627;28;20820;-71
2023/08/18 04:28:46;;;;;;;0.60;0.60;;;;;;;;;;5013563;28;20897;-71
2023/08/18 04:31:12;;;;;;;0.50;0.50;;;16.40;99.90;;;;;;5013547;28;20437;-71
2023/08/18 04:33:37;;;;;;;0.70;0.67;;;16.40;99.90;;;;;;5013586;28;20445;-71
2023/08/18 04:36:03;;;;;;;1.53;1.43;;;16.30;99.90;;;;;;5013221;28;20409;-71
2023/08/18 04:38:30;;;;;;;0.90;0.70;;;16.10;99.90;;;;;;4995869;28;20179;-70
2023/08/18 04:41:00;;;;;;;0.40;0.40;;;16.30;99.90;;;;;;5013431;28;20421;-71
2023/08/18 04:43:27;;;;;;;0.47;0.47;;;16.20;99.90;;;;;;5013957;28;20761;-70
2023/08/18 04:45:53;;;;;;;1.17;1.07;;;16.30;99.90;;;;;;5013143;28;20454;-70
2023/08/18 04:48:19;;;;;;;0.80;0.80;;;16.30;99.90;;;;;;5013505;28;20414;-70
2023/08/18 04:50:45;;;;;;;0.60;0.60;;;16.20;99.90;;;;;;5013414;28;20434;-71
2023/08/18 04:53:11;;;;;;;0.47;0.47;;;16.20;99.90;;;;;;5013587;28;20544;-71
2023/08/18 04:55:37;;;;;;;0.80;0.70;;;16.30;99.90;;;;;;5013210;28;20508;-71
2023/08/18 04:58:03;;;;;;;0.57;0.57;;;16.50;99.90;;;;;;5013511;28;20218;-70
2023/08/18 05:00:29;;;;;;;0.40;0.40;;;;;;;;;;5013192;28;20426;-71
2023/08/18 05:02:55;;;;;;;0.77;0.67;;;16.70;99.90;;;;;;5013379;28;20438;-70
2023/08/18 05:05:21;;;;;;;1.50;0.70;;;;;;;;;;5013017;28;20867;-69
2023/08/18 05:07:47;;;;;;;0.73;0.73;;;17.20;99.90;;;;;;5013379;28;20442;-71
2023/08/18 05:10:12;;;;;;;0.40;0.40;;;17.10;99.90;;;;;;5012757;28;20466;-70
2023/08/18 05:12:38;;;;;;;4.03;1.07;;;;;;;;;;5013228;28;20206;-70
2023/08/18 05:15:05;;;;;;;0.60;0.60;;;17.30;99.90;;;;;;5012972;28;20179;-71
2023/08/18 05:17:30;;;;;;;0.87;0.87;;;17.70;99.90;;;;;;5013176;28;20399;-71
2023/08/18 05:19:56;;;;;;;0.80;0.80;;;;;;;;;;5012979;28;20446;-70
2023/08/18 05:22:22;;;;;;;0.60;0.53;;;17.40;99.90;;;;;;5013011;28;20649;-70
2023/08/18 05:24:49;;;;;;;1.27;1.20;;;;;;;;;;5015909;28;20412;-71
2023/08/18 05:27:16;;;;;;;0.73;0.70;;;17.90;99.90;;;;;;4999140;28;20898;-71
2023/08/18 05:29:41;;;;;;;0.70;0.63;;;18.20;99.90;;;;;;5016678;28;20491;-71
2023/08/18 05:32:07;;;;;;;1.00;1.00;;;18.00;99.90;;;;;;5016741;28;20493;-70
2023/08/18 05:34:33;;;;;;;0.47;0.47;;;18.10;99.90;;;;;;5016359;28;20245;-71
2023/08/18 05:36:58;;;;;;;1.50;1.40;;;18.60;99.90;;;;;;5016590;28;20651;-71
2023/08/18 05:39:24;;;;;;;1.07;0.97;;;19.20;99.90;;;;;;5016487;28;20184;-71
2023/08/18 05:41:50;;;;;;;2.00;1.03;;;;;;;;;;5016057;28;20279;-71
2023/08/18 05:44:16;;;;;;;2.23;1.23;;;20.10;98.70;;;;;;5016181;28;20654;-71
2023/08/18 05:46:41;;;;;;;0.90;0.90;;;20.90;98.10;;;;;;5016517;28;20409;-72
2023/08/18 05:49:08;;;;;;;0.67;0.67;;;21.70;96.50;;;;;;5016481;28;20175;-71
2023/08/18 05:51:33;;;;;;;0.87;0.80;;;22.50;94.10;;;;;;5016209;28;20194;-72
2023/08/18 05:53:59;;;;;;;5.20;1.20;;;23.00;92.70;;;;;;5015950;28;20454;-71
2023/08/18 05:56:25;;;;;;;0.97;0.90;;;;;;;;;;5016417;28;20519;-71
2023/08/18 05:58:51;;;;;;;1.50;1.03;;;24.00;91.30;;;;;;5016174;28;20167;-72
2023/08/18 06:01:17;;;;;;;1.10;1.10;;;24.90;90.10;;;;;;5015998;28;20429;-72
2023/08/18 06:03:43;;;;;;;3.60;1.17;;;25.60;86.30;;;;;;5016158;28;20225;-72
2023/08/18 06:06:08;;;;;;;2.10;2.00;;;26.00;84.10;;;;;;5015801;28;20410;-71
2023/08/18 06:08:34;;;;;;;0.90;0.90;;;26.10;84.60;;;;;;5016281;28;20735;-72
2023/08/18 06:11:00;;;;;;;0.57;0.57;;;26.20;83.20;;;;;;5015825;28;20663;-72
2023/08/18 06:13:26;;;;;;;1.00;1.00;;;26.40;82.40;;;;;;5015906;28;20206;-71
2023/08/18 06:15:54;;;;;;;1.60;1.50;;;26.60;81.40;;;;;;5015730;28;20167;-71
2023/08/18 06:18:20;;;;;;;0.80;0.80;;;26.90;81.40;;;;;;5015825;28;20222;-71
2023/08/18 06:20:46;;;;;;;0.90;0.70;;;26.80;80.00;;;;;;5015567;28;20513;-71
2023/08/18 06:23:11;;;;;;;0.60;0.60;;;26.70;80.20;;;;;;5015615;28;20407;-72
2023/08/18 06:25:38;;;;;;;3.07;1.30;;;26.60;79.90;;;;;;5015614;28;20689;-72
2023/08/18 06:28:06;;;;;;;1.43;1.30;;;26.50;80.00;;;;;;5015663;28;20207;-72
2023/08/18 06:30:32;;;;;;;1.33;0.60;;;26.10;80.60;;;;;;5015318;28;20427;-72
2023/08/18 06:32:57;;;;;;;0.60;0.60;;;25.90;81.80;;;;;;5015324;28;21008;-71
2023/08/18 06:35:23;;;;;;;3.97;2.03;;;25.60;83.20;;;;;;5014370;28;20218;-72
2023/08/18 06:37:49;;;;;;;0.63;0.60;;;25.40;84.90;;;;;;5015423;28;20175;-71
2023/08/18 06:40:14;;;;;;;0.90;0.80;;;25.40;85.30;;;;;;5015281;28;20194;-72
2023/08/18 06:42:40;;;;;;;1.30;1.30;;;;;;;;;;5015510;28;20643;-72
2023/08/18 06:45:07;;;;;;;0.70;0.70;;;25.40;85.60;;;;;;5015117;28;20524;-71
2023/08/18 06:47:32;;;;;;;1.17;1.07;;;25.20;84.90;;;;;;5015069;28;20393;-72
2023/08/18 06:49:59;;;;;;;2.33;1.07;;;25.00;83.30;;;;;;5015075;28;20662;-70
2023/08/18 06:52:26;;;;;;;0.90;0.80;;;24.80;82.70;;;;;;5015190;28;20182;-71
2023/08/18 06:54:52;;;;;;;0.70;0.70;;;;;;;;;;5014741;28;20381;-72
2023/08/18 06:57:18;;;;;;;1.60;0.80;;;;;;;;;;4997513;28;20406;-72
2023/08/18 06:59:43;;;;;;;0.40;0.40;;;24.30;99.90;;;;;;5014968;28;20749;-71
2023/08/18 07:02:09;;;;;;;0.50;0.50;;;24.30;88.60;;;;;;5015053;28;20407;-71
2023/08/18 07:04:35;;;;;;;0.83;0.83;;;;;;;;;;5014688;28;20180;-72
2023/08/18 07:07:01;;;;;;;0.60;0.60;;;24.10;87.80;;;;;;5014841;28;20187;-71
2023/08/18 07:09:26;;;;;;;1.43;0.83;;;24.60;99.90;;;;;;5014669;28;20469;-71
2023/08/18 07:11:52;;;;;;;0.70;0.70;;;24.60;85.00;;;;;;5014824;28;20176;-71
2023/08/18 07:14:17;;;;;;;0.63;0.57;;;24.90;86.90;;;;;;5014430;28;20207;-71
2023/08/18 07:16:44;;;;;;;1.00;1.00;;;25.00;87.40;;;;;;5014675;28;20179;-72
2023/08/18 07:19:10;;;;;;;0.60;0.60;;;25.10;86.60;;;;;;5014391;28;20188;-71
2023/08/18 07:21:35;;;;;;;0.60;0.60;;;25.20;86.70;;;;;;5014508;28;20404;-72
2023/08/18 07:24:01;;;;;;;1.10;1.10;;;25.30;86.40;;;;;;5014283;28;20624;-72
2023/08/18 07:26:27;;;;;;;0.80;0.80;;;25.60;85.60;;;;;;5014626;28;20518;-72
2023/08/18 07:28:53;;;;;;;1.17;1.07;;;26.20;83.70;;;;;;5014543;28;20433;-71
2023/08/18 07:31:18;;;;;;;0.63;0.63;;;27.00;78.80;;;;;;5014280;28;20199;-72
2023/08/18 07:33:44;;;;;;;2.17;1.53;;;28.10;79.00;;;;;;5014687;28;20551;-72
2023/08/18 07:36:10;;;;;;;0.50;0.50;;;29.30;73.20;;;;;;5014191;28;20172;-72
2023/08/18 07:38:35;;;;;;;2.00;1.07;;;30.20;71.40;;;;;;5014278;28;20251;-73
2023/08/18 07:41:02;;;;;;;0.73;0.70;;;31.20;70.20;;;;;;5014212;28;20187;-72
2023/08/18 07:43:27;;;;;;;1.07;0.90;;;32.40;68.10;;;;;;5014141;28;20174;-72
2023/08/18 07:45:55;;;;;;;0.60;0.60;;;33.90;64.50;;;;;;5013740;28;20406;-73
2023/08/18 07:48:20;;;;;;;0.80;0.60;;;35.40;59.00;;;;;;5014006;28;20183;-73
2023/08/18 07:50:47;;;;;;;1.37;0.60;;;;;;;;;;5013999;28;20434;-73
2023/08/18 07:53:12;;;;;;;2.03;0.70;;;38.10;52.60;;;;;;5013951;28;20202;-72
2023/08/18 07:55:38;;;;;;;1.37;0.83;;;39.30;49.30;;;;;;5013891;28;20502;-72
2023/08/18 07:58:04;;;;;;;1.93;0.70;;;40.10;45.10;;;;;;5014077;28;20197;-73
2023/08/18 08:00:30;;;;;;;0.50;0.50;;;40.80;44.10;;;;;;5014113;28;20227;-73
2023/08/18 08:02:57;;;;;;;0.57;0.57;;;41.60;42.20;;;;;;5013922;28;20182;-72
2023/08/18 08:05:23;;;;;;;1.13;0.60;;;42.30;40.10;;;;;;5013757;28;20782;-73
2023/08/18 08:07:50;;;;;;;1.73;0.70;;;43.70;37.60;;;;;;5013897;28;20421;-73
2023/08/18 08:10:16;;;;;;;0.93;0.67;;;;;;;;;;5013861;28;20512;-73
2023/08/18 08:12:43;;;;;;;1.43;0.70;;;43.90;36.20;;;;;;5013575;28;20461;-73
2023/08/18 08:15:11;;;;;;;0.50;0.50;;;44.30;35.90;;;;;;5013621;28;20912;-73
2023/08/18 08:17:37;;;;;;;0.63;0.63;;;;;;;;;;5013865;28;20472;-74
2023/08/18 08:20:13;;;;;;;0.83;0.57;;;44.70;33.20;;;;;;5013432;28;20437;-73
2023/08/18 08:22:39;;;;;;;1.60;0.70;;;44.80;32.90;;;;;;5013796;28;20390;-73
2023/08/18 08:25:05;;;;;;;1.00;0.50;;;44.70;32.30;;;;;;5013423;28;20498;-73
2023/08/18 08:27:31;;;;;;;0.40;0.40;;;44.60;32.70;;;;;;5013733;28;20539;-73
2023/08/18 08:29:57;;;;;;;4.00;0.90;;;43.90;31.60;;;;;;5013720;28;20269;-74
2023/08/18 08:32:23;;;;;;;0.50;0.50;;;44.60;32.50;;;;;;5013694;28;20613;-74
2023/08/18 08:34:49;;;;;;;0.50;0.50;;;45.10;32.80;;;;;;5013331;28;20195;-73
2023/08/18 08:37:16;;;;;;;0.73;0.60;;;45.30;31.40;;;;;;5013674;28;20171;-73
2023/08/18 08:39:41;;;;;;;0.77;0.68;;;45.30;47.10;;;;;;5013337;28;20258;-73
2023/08/18 08:42:08;;;;;;;0.68;0.60;;;45.50;31.10;;;;;;5013440;28;20210;-73
2023/08/18 08:44:33;;;;;;;1.40;0.70;;;45.70;30.90;;;;;;5013399;28;20627;-73
2023/08/18 08:47:00;;;;;;;1.52;0.65;;;45.80;30.90;;;;;;5013444;28;20175;-74
2023/08/18 08:49:29;;;;;;;0.93;0.90;;;46.00;30.80;;;;;;5013564;28;20567;-73
2023/08/18 08:51:57;;;;;;;0.70;0.60;;;46.00;30.00;;;;;;5013407;28;20179;-74
2023/08/18 08:54:26;;;;;;;0.88;0.82;;;46.00;30.50;;;;;;5013173;28;20222;-73
2023/08/18 08:56:52;;;;;;;0.63;0.63;;;45.80;30.20;;;;;;5013262;28;20181;-73
2023/08/18 08:59:18;;;;;;;1.40;1.30;;;45.80;30.80;;;;;;5015765;28;20163;-73
2023/08/18 09:01:44;;;;;;;1.57;0.80;;;45.80;30.50;;;;;;5017204;28;20191;-73
2023/08/18 09:04:10;;;;;;;1.63;0.80;;;45.80;30.70;;;;;;5017081;28;20198;-73
2023/08/18 09:06:36;;;;;;;3.20;0.67;;;45.70;30.90;;;;;;5017057;28;20214;-73
2023/08/18 09:09:03;;;;;;;0.97;0.90;;;45.20;31.60;;;;;;5016932;28;20178;-73
2023/08/18 09:11:42;;;;;;;1.50;0.90;;;44.60;31.10;;;;;;5016962;28;20201;-73
2023/08/18 09:14:08;;;;;;;2.10;0.90;;;;;;;;;;5016779;28;20195;-73
2023/08/18 09:16:34;;;;;;;0.80;0.80;;;44.00;32.00;;;;;;5016819;28;20421;-73
2023/08/18 09:19:01;;;;;;;1.33;1.23;;;44.40;31.90;;;;;;5016677;28;20930;-73
2023/08/18 09:21:27;;;;;;;1.50;1.13;;;;;;;;;;5016759;28;20198;-73
2023/08/18 09:23:56;;;;;;;2.03;0.87;;;43.40;29.20;;;;;;5016701;28;20413;-73
2023/08/18 09:26:24;;;;;;;0.73;0.73;;;43.10;30.30;;;;;;5016917;28;20163;-73
2023/08/18 09:28:50;;;;;;;1.93;1.10;;;;;;;;;;5016824;28;20429;-74
2023/08/18 09:31:15;;;;;;;4.07;1.00;;;43.20;30.90;;;;;;5016459;28;20512;-74
2023/08/18 09:33:42;;;;;;;1.10;1.00;;;43.40;32.70;;;;;;5016657;28;20499;-73
2023/08/18 09:36:11;;;;;;;1.97;0.90;;;43.70;32.20;;;;;;5016241;28;20175;-73
2023/08/18 09:38:41;;;;;;;1.40;1.30;;;43.70;31.70;;;;;;5016688;28;20398;-73
2023/08/18 09:41:08;;;;;;;0.93;0.70;;;43.50;29.50;;;;;;5016354;28;20437;-74
2023/08/18 09:43:34;;;;;;;1.50;1.40;;;43.20;30.70;;;;;;5016466;28;20410;-73
2023/08/18 09:46:03;;;;;;;1.33;1.20;;;42.80;29.90;;;;;;5016245;28;20438;-74
2023/08/18 09:48:34;;;;;;;1.00;1.00;;;42.60;30.20;;;;;;5016291;28;20433;-73
2023/08/18 09:51:00;;;;;;;2.13;1.20;;;;;;;;;;5016444;28;20430;-74
2023/08/18 09:53:32;;;;;;;1.30;1.03;;;41.80;30.10;;;;;;5016091;28;20456;-74
2023/08/18 09:56:06;;;;;;;1.03;0.93;;;41.30;34.50;;;;;;5016090;28;20430;-73
2023/08/18 09:58:54;;;;;;;1.10;1.10;;;41.30;35.20;;;;;;5016240;28;20465;-72
2023/08/18 10:01:21;;;;;;;1.20;1.17;;;40.90;31.30;;;;;;5015937;28;20434;-74
2023/08/18 10:03:48;;;;;;;1.57;1.10;;;40.90;32.00;;;;;;5016070;28;20452;-73
2023/08/18 10:06:17;;;;;;;1.90;1.53;;;39.90;32.20;;;;;;5015859;28;20414;-72
2023/08/18 10:08:42;;;;;;;2.00;1.10;;;39.90;32.70;;;;;;5016154;28;20804;-73
2023/08/18 10:11:09;;;;;;;7.70;1.90;;;39.30;33.60;;;;;;5015885;28;20481;-73
2023/08/18 10:13:37;;;;;;;1.53;1.43;;;39.00;35.20;;;;;;5015736;28;20781;-73
2023/08/18 10:16:04;;;;;;;1.70;1.60;;;38.60;32.70;;;;;;5015630;28;20766;-73
2023/08/18 10:18:30;;;;;;;0.83;0.80;;;38.30;31.80;;;;;;5015729;28;20472;-73
2023/08/18 10:20:57;;;;;;;1.27;1.17;;;37.90;33.70;;;;;;5015481;28;20533;-72
2023/08/18 10:23:30;;;;;;;1.20;1.10;;;37.80;33.90;;;;;;5015584;28;20510;-73
2023/08/18 10:25:56;;;;;;;1.00;1.00;;;36.60;34.70;;;;;;5015330;28;20468;-73
2023/08/18 10:28:27;;;;;;;0.87;0.87;;;37.10;35.10;;;;;;5015493;28;20406;-73
2023/08/18 10:31:10;;;;;;;1.50;1.10;;;37.10;35.90;;;;;;5015586;28;20427;-72
2023/08/18 10:33:43;;;;;;;1.23;1.13;;;37.50;34.60;;;;;;5015619;28;20450;-72
2023/08/18 10:36:12;;;;;;;1.23;1.10;;;37.70;35.30;;;;;;5015390;28;20394;-72
2023/08/18 10:38:41;;;;;;;1.37;1.27;;;37.60;35.80;;;;;;5015267;28;20505;-73
2023/08/18 10:41:07;;;;;;;2.07;1.97;;;37.40;36.10;;;;;;5015185;28;20421;-73
2023/08/18 10:43:53;;;;;;;2.23;1.37;;;36.80;33.90;;;;;;5015314;28;20762;-72
2023/08/18 10:46:18;;;;;;;1.73;1.30;;;36.70;34.50;;;;;;5015411;28;20217;-73
2023/08/18 10:48:45;;;;;;;0.90;0.90;;;;;;;;;;5015243;28;20415;-73
2023/08/18 10:51:10;;;;;;;2.80;2.03;;;36.60;36.10;;;;;;5014992;28;20281;-73
2023/08/18 10:53:37;;;;;;;1.73;1.47;;;36.40;35.90;;;;;;5015006;28;20489;-73
2023/08/18 10:56:04;;;;;;;1.13;1.00;;;36.20;35.20;;;;;;5014901;28;20504;-73
2023/08/18 10:58:31;;;;;;;1.80;0.80;;;36.20;36.10;;;;;;5015056;28;20494;-72
2023/08/18 11:00:57;;;;;;;2.40;0.90;;;;;;;;;;5014831;28;20797;-72
2023/08/18 11:03:25;;;;;;;1.20;1.10;;;35.20;34.90;;;;;;5015071;28;20860;-73
2023/08/18 11:05:50;;;;;;;0.83;0.83;;;34.80;37.20;;;;;;5014686;28;20896;-73
2023/08/18 11:08:17;;;;;;;1.30;1.20;;;34.40;39.40;;;;;;5014950;28;20414;-72
2023/08/18 11:10:43;;;;;;;1.20;1.10;;;;;;;;;;5014684;28;20641;-72
2023/08/18 11:13:22;;;;;;;2.83;1.40;;;34.00;39.70;;;;;;5014704;28;20496;-73
2023/08/18 11:15:52;;;;;;;1.80;1.20;;;34.00;40.40;;;;;;5014453;28;20398;-73
2023/08/18 11:18:20;;;;;;;0.80;0.80;;;33.80;40.50;;;;;;5014752;28;20398;-74
2023/08/18 11:20:46;;;;;;;1.10;1.10;;;33.50;45.10;;;;;;5013984;28;20529;-73
2023/08/18 11:23:12;;;;;;;1.97;1.23;;;;;;;;;;5014577;28;20403;-72
2023/08/18 11:25:37;;;;;;;1.47;1.37;;;33.00;40.00;;;;;;5014238;28;20409;-73
2023/08/18 11:28:04;;;;;;;1.13;1.03;;;33.00;38.70;;;;;;5014592;28;20763;-73
2023/08/18 11:30:32;;;;;;;1.30;1.20;;;33.10;40.20;;;;;;5014422;28;20266;-73
2023/08/18 11:32:58;;;;;;;1.73;1.47;;;33.20;37.90;;;;;;5014498;28;20478;-73
2023/08/18 11:35:25;;;;;;;1.00;0.90;;;33.20;36.50;;;;;;5014204;28;20426;-73
2023/08/18 11:37:52;;;;;;;1.80;0.80;;;;;;;;;;5014465;28;20164;-73
2023/08/18 11:40:20;;;;;;;0.73;0.73;;;33.10;38.50;;;;;;5014337;28;20521;-72
2023/08/18 11:42:48;;;;;;;2.93;0.80;;;33.10;39.00;;;;;;5014217;28;20415;-72
2023/08/18 11:45:22;;;;;;;1.97;1.03;;;32.90;35.60;;;;;;5014124;28;20417;-72
2023/08/18 11:48:04;;;;;;;0.80;0.67;;;32.80;37.20;;;;;;5014358;28;20781;-72
2023/08/18 11:50:34;;;;;;;1.10;0.67;;;32.70;35.80;;;;;;5014162;28;20426;-73
2023/08/18 11:53:01;;;;;;;0.83;0.83;;;32.60;39.10;;;;;;5014009;28;20515;-73
2023/08/18 11:55:34;;;;;;;0.70;0.70;;;32.50;35.40;;;;;;5013867;28;20438;-72
2023/08/18 11:58:10;;;;;;;1.03;0.93;;;32.50;37.50;;;;;;5013890;28;20437;-73
2023/08/18 12:00:38;;;;;;;0.77;0.77;;;32.60;36.20;;;;;;5014189;28;20424;-72
2023/08/18 12:03:05;;;;;;;0.97;0.73;;;32.50;36.90;;;;;;5014116;28;20442;-72
2023/08/18 12:05:31;;;;;;;2.13;1.10;;;32.20;35.90;;;;;;5013587;28;20406;-72
2023/08/18 12:08:01;;;;;;;0.57;0.57;;;32.20;39.20;;;;;;5013959;28;20407;-73
2023/08/18 12:10:26;;;;;;;0.60;0.60;;;32.20;38.50;;;;;;5013818;28;20470;-73
2023/08/18 12:12:56;;;;;;;0.80;0.73;;;32.30;38.40;;;;;;5013947;28;20546;-73
2023/08/18 12:15:25;;;;;;;1.50;1.40;;;32.30;37.60;;;;;;5013729;28;20174;-72
2023/08/18 12:17:51;;;;;;;1.03;0.80;;;32.00;38.60;;;;;;5013751;28;20406;-73
2023/08/18 12:20:20;;;;;;;1.00;0.80;;;31.70;44.70;;;;;;5013555;28;20446;-73
2023/08/18 12:22:49;;;;;;;0.73;0.70;;;31.60;42.40;;;;;;5013643;28;20168;-73
2023/08/18 12:25:15;;;;;;;0.77;0.77;;;31.50;42.70;;;;;;5013424;28;20403;-72
2023/08/18 12:27:43;;;;;;;2.83;1.13;;;31.50;39.30;;;;;;5013629;28;20498;-73
2023/08/18 12:30:09;;;;;;;1.17;0.80;;;31.50;39.30;;;;;;5013649;28;20846;-73
2023/08/18 12:32:35;;;;;;;0.40;0.40;;;;;;;;;;5012981;28;20410;-72
2023/08/18 12:35:01;;;;;;;0.67;0.67;;;31.60;40.30;;;;;;5013220;28;20407;-72
2023/08/18 12:37:27;;;;;;;2.07;0.87;;;31.70;37.30;;;;;;5013597;28;20421;-73
2023/08/18 12:39:55;;;;;;;1.10;0.80;;;;;;;;;;5013403;28;20191;-72
2023/08/18 12:42:23;;;;;;;0.97;0.97;;;31.40;39.20;;;;;;5013451;28;20403;-72
2023/08/18 12:44:49;;;;;;;1.47;1.37;;;31.40;39.30;;;;;;5013226;28;20418;-72
2023/08/18 12:47:15;;;;;;;0.93;0.80;;;31.30;41.40;;;;;;5013581;28;20752;-72
2023/08/18 12:49:40;;;;;;;1.30;1.20;;;30.70;59.20;;;;;;5013286;28;20463;-72
2023/08/18 12:52:06;;;;;;;1.20;1.10;;;30.90;38.80;;;;;;5013376;28;20172;-72
2023/08/18 12:54:32;;;;;;;1.40;0.83;;;30.80;40.80;;;;;;5013139;28;20222;-73
2023/08/18 12:56:58;;;;;;;0.67;0.67;;;30.80;41.70;;;;;;5013393;28;20655;-73
2023/08/18 12:59:23;;;;;;;1.10;1.00;;;30.90;40.50;;;;;;5013411;28;20168;-72